Time;durP1;ratioP1;P1;durP2;ratioP2;P2;SDS_P1;SDS_P2;PMS_P1;PMS_P2;Temp;Humidity;BMP_temperature;BMP_pressure;BME280_temperature;BME280_humidity;BME280_pressure;Samples;Min_cycle;Max_cycle;Signal;HPM_P1;HPM_P2
2021/11/09 00:00:42;;;;;;;7.63;3.42;;;7.40;93.10;;;;;;2080594;28;20053;-89
2021/11/09 00:01:47;;;;;;;8.40;3.65;;;7.40;93.10;;;;;;2073104;28;20025;-89
2021/11/09 00:02:49;;;;;;;6.68;3.20;;;7.30;93.10;;;;;;2079991;28;20191;-89
2021/11/09 00:04:01;;;;;;;9.27;3.50;;;7.30;93.10;;;;;;2064659;28;20554;-89
2021/11/09 00:05:05;;;;;;;7.82;3.40;;;7.30;93.10;;;;;;2067072;28;20034;-89
2021/11/09 00:08:23;;;;;;;7.10;3.45;;;7.30;93.40;;;;;;2080843;28;20029;-88
2021/11/09 00:09:28;;;;;;;10.35;3.58;;;7.20;93.10;;;;;;2075559;28;20064;-89
2021/11/09 00:10:29;;;;;;;7.47;3.40;;;7.20;93.10;;;;;;2065517;28;20038;-89
2021/11/09 00:11:30;;;;;;;7.20;3.90;;;7.20;93.10;;;;;;2077593;28;20046;-90
2021/11/09 00:12:37;;;;;;;7.13;3.50;;;7.20;93.10;;;;;;2073452;28;20077;-90
2021/11/09 00:13:38;;;;;;;7.70;3.33;;;7.10;93.10;;;;;;2073437;28;20508;-90
2021/11/09 00:14:39;;;;;;;9.35;4.10;;;7.10;93.10;;;;;;2057251;28;20038;-90
2021/11/09 00:15:40;;;;;;;9.13;4.10;;;7.10;93.20;;;;;;2048956;28;20043;-89
2021/11/09 00:16:40;;;;;;;8.95;4.10;;;7.00;93.20;;;;;;2048861;28;20049;-89
2021/11/09 00:17:43;;;;;;;10.13;3.83;;;7.00;93.20;;;;;;2061796;28;20406;-90
2021/11/09 00:18:45;;;;;;;7.88;3.75;;;7.00;93.30;;;;;;2078490;28;20436;-89
2021/11/09 00:19:46;;;;;;;10.00;3.88;;;7.00;93.30;;;;;;2083906;28;20025;-89
2021/11/09 00:20:47;;;;;;;9.55;3.58;;;7.00;93.30;;;;;;2073765;28;20027;-88
2021/11/09 00:21:47;;;;;;;8.13;3.78;;;7.00;93.30;;;;;;2075347;28;20037;-89
2021/11/09 00:22:49;;;;;;;7.43;3.67;;;7.00;93.40;;;;;;2083430;28;20201;-88
2021/11/09 00:23:50;;;;;;;7.88;3.75;;;7.00;93.40;;;;;;2084472;28;20204;-80
2021/11/09 00:24:52;;;;;;;8.35;3.25;;;7.00;93.40;;;;;;2089584;28;20044;-88
2021/11/09 00:25:53;;;;;;;7.80;3.67;;;7.00;93.40;;;;;;2084241;28;20040;-88
2021/11/09 00:26:53;;;;;;;8.05;3.65;;;6.90;93.30;;;;;;2080196;28;20049;-89
2021/11/09 00:27:54;;;;;;;7.28;3.42;;;7.00;93.40;;;;;;2077571;28;20029;-89
2021/11/09 00:28:55;;;;;;;7.47;3.85;;;6.90;93.30;;;;;;2080327;28;20030;-89
2021/11/09 00:29:56;;;;;;;6.38;3.50;;;6.90;93.30;;;;;;2075624;28;20033;-89
2021/11/09 00:30:56;;;;;;;9.65;4.18;;;6.90;93.30;;;;;;2072809;28;20097;-89
2021/11/09 00:31:57;;;;;;;9.27;3.67;;;6.90;93.30;;;;;;2064648;28;20023;-90
2021/11/09 00:32:58;;;;;;;7.35;3.83;;;6.90;93.60;;;;;;2065159;28;20461;-89
2021/11/09 00:33:59;;;;;;;8.60;3.78;;;6.90;93.40;;;;;;2080696;28;20045;-89
2021/11/09 00:35:00;;;;;;;7.25;3.65;;;6.90;93.30;;;;;;2079133;28;20034;-89
2021/11/09 00:36:01;;;;;;;9.13;3.83;;;6.90;93.30;;;;;;2081203;28;20041;-89
2021/11/09 00:37:04;;;;;;;6.50;3.60;;;6.90;93.30;;;;;;2081267;28;20026;-89
2021/11/09 00:38:08;;;;;;;8.90;3.50;;;6.90;93.30;;;;;;2074587;28;20045;-89
2021/11/09 00:39:12;;;;;;;9.40;3.95;;;6.90;93.30;;;;;;2073212;28;20058;-90
2021/11/09 00:40:15;;;;;;;7.85;3.53;;;6.90;93.30;;;;;;2060832;28;20062;-89
2021/11/09 00:41:16;;;;;;;8.77;3.65;;;6.90;93.30;;;;;;2050426;28;20036;-89
2021/11/09 00:42:17;;;;;;;9.48;4.00;;;6.90;93.30;;;;;;2071096;28;20022;-89
2021/11/09 00:43:19;;;;;;;8.88;3.90;;;6.90;93.30;;;;;;2058958;28;20054;-90
2021/11/09 00:44:19;;;;;;;7.32;3.58;;;6.90;93.20;;;;;;2065850;28;20045;-89
2021/11/09 00:45:20;;;;;;;9.63;3.50;;;6.90;93.20;;;;;;2083816;28;20041;-90
2021/11/09 00:46:21;;;;;;;8.40;3.92;;;6.90;93.30;;;;;;2087543;28;20040;-90
2021/11/09 00:47:22;;;;;;;9.15;4.47;;;6.90;93.30;;;;;;2078970;28;20124;-90
2021/11/09 00:48:23;;;;;;;7.68;3.47;;;6.80;93.30;;;;;;2069200;28;20061;-90
2021/11/09 00:49:24;;;;;;;7.53;3.53;;;6.80;93.30;;;;;;2064994;28;20520;-90
2021/11/09 00:50:25;;;;;;;6.10;3.58;;;6.80;93.60;;;;;;2072713;28;20056;-90
2021/11/09 00:51:26;;;;;;;6.95;3.55;;;6.80;93.40;;;;;;2072723;28;20034;-90
2021/11/09 00:52:27;;;;;;;10.27;4.10;;;6.80;93.40;;;;;;2076870;28;20045;-90
2021/11/09 00:53:27;;;;;;;8.13;3.80;;;6.80;93.40;;;;;;2078370;28;20052;-90
2021/11/09 00:54:29;;;;;;;8.60;3.90;;;6.80;93.40;;;;;;2085312;28;20389;-90
2021/11/09 00:55:30;;;;;;;6.65;3.80;;;6.80;93.40;;;;;;2081812;28;20081;-89
2021/11/09 00:56:31;;;;;;;7.32;3.67;;;6.80;93.40;;;;;;2081693;28;20075;-89
2021/11/09 00:57:32;;;;;;;8.55;3.88;;;6.80;93.40;;;;;;2069425;28;20429;-89
2021/11/09 00:58:33;;;;;;;7.00;4.07;;;6.80;93.40;;;;;;2069085;28;20030;-89
2021/11/09 00:59:33;;;;;;;6.75;3.50;;;6.80;93.40;;;;;;2064341;28;20042;-89
2021/11/09 01:00:35;;;;;;;8.98;3.88;;;6.80;93.40;;;;;;2065012;28;20444;-90
2021/11/09 01:01:36;;;;;;;7.47;3.80;;;6.80;93.40;;;;;;2063866;28;20116;-89
2021/11/09 01:02:37;;;;;;;8.93;4.10;;;6.80;93.40;;;;;;2069665;28;20118;-90
2021/11/09 01:03:38;;;;;;;8.63;3.97;;;6.80;93.40;;;;;;2082170;28;20061;-90
2021/11/09 01:04:39;;;;;;;7.10;3.70;;;6.70;93.40;;;;;;2081344;28;20068;-90
2021/11/09 01:05:40;;;;;;;8.35;4.13;;;6.80;93.40;;;;;;2065393;28;20038;-90
2021/11/09 01:06:41;;;;;;;8.95;3.67;;;6.80;93.40;;;;;;2069486;28;20424;-90
2021/11/09 01:07:41;;;;;;;7.03;3.65;;;6.80;93.40;;;;;;2083254;28;20466;-90
2021/11/09 01:08:42;;;;;;;7.60;3.53;;;6.80;93.40;;;;;;2083043;28;20041;-90
2021/11/09 01:09:43;;;;;;;7.63;3.53;;;6.80;93.40;;;;;;2081037;28;20097;-90
2021/11/09 01:10:50;;;;;;;7.00;3.60;;;6.70;93.40;;;;;;2089516;28;20064;-90
2021/11/09 01:11:52;;;;;;;6.18;3.33;;;6.70;93.40;;;;;;2084417;28;20037;-90
2021/11/09 01:12:53;;;;;;;8.23;3.88;;;6.70;93.40;;;;;;2082315;28;20033;-91
2021/11/09 01:13:53;;;;;;;7.45;3.60;;;6.70;93.40;;;;;;2074667;28;20117;-91
2021/11/09 01:14:54;;;;;;;6.47;3.80;;;6.70;93.40;;;;;;2066214;28;20031;-90
2021/11/09 01:15:56;;;;;;;7.10;3.53;;;6.70;93.40;;;;;;2054944;28;20075;-90
2021/11/09 01:16:57;;;;;;;7.35;3.53;;;6.70;93.40;;;;;;2055547;28;20054;-90
2021/11/09 01:18:01;;;;;;;7.13;3.92;;;6.70;93.40;;;;;;2066631;28;20045;-90
2021/11/09 01:19:05;;;;;;;7.45;3.70;;;6.70;93.40;;;;;;2074550;28;20046;-91
2021/11/09 01:20:07;;;;;;;7.35;4.38;;;6.70;93.40;;;;;;2077194;28;20108;-91
2021/11/09 01:21:08;;;;;;;8.25;3.92;;;6.70;93.40;;;;;;2074437;28;20041;-90
2021/11/09 01:22:10;;;;;;;10.13;3.97;;;6.70;93.40;;;;;;2074233;28;20061;-91
2021/11/09 01:23:12;;;;;;;7.22;3.75;;;6.70;93.40;;;;;;2073872;28;20468;-90
2021/11/09 01:24:14;;;;;;;10.00;4.07;;;6.70;93.40;;;;;;2065936;28;20030;-91
2021/11/09 01:25:15;;;;;;;7.05;3.78;;;6.70;93.40;;;;;;2067019;28;20569;-90
2021/11/09 01:26:17;;;;;;;8.57;3.85;;;6.70;93.40;;;;;;2083125;28;20040;-91
2021/11/09 01:27:17;;;;;;;8.15;3.97;;;6.70;93.40;;;;;;2076252;28;20030;-90
2021/11/09 01:28:18;;;;;;;8.35;3.67;;;6.70;93.40;;;;;;2066370;28;20519;-91
2021/11/09 01:29:19;;;;;;;7.57;4.03;;;6.60;93.40;;;;;;2081355;28;20484;-90
2021/11/09 01:30:20;;;;;;;8.98;3.88;;;6.60;93.40;;;;;;2066202;28;20169;-90
2021/11/09 01:31:23;;;;;;;7.75;4.20;;;6.60;93.40;;;;;;2058186;28;20122;-91
2021/11/09 01:32:23;;;;;;;8.00;3.72;;;6.60;93.40;;;;;;2066933;28;20496;-90
2021/11/09 01:33:24;;;;;;;7.82;4.00;;;6.60;93.40;;;;;;2072929;28;20037;-89
2021/11/09 01:34:25;;;;;;;7.60;3.90;;;6.60;93.40;;;;;;2069207;28;20045;-90
2021/11/09 01:35:26;;;;;;;7.03;4.22;;;6.60;93.40;;;;;;2066002;28;20042;-90
2021/11/09 01:36:27;;;;;;;7.97;4.03;;;6.60;93.40;;;;;;2058537;28;20046;-90
2021/11/09 01:37:28;;;;;;;9.00;4.05;;;6.60;93.40;;;;;;2053495;28;20478;-90
2021/11/09 01:38:28;;;;;;;8.40;3.97;;;6.60;93.40;;;;;;2066174;28;20057;-90
2021/11/09 01:39:29;;;;;;;9.23;4.10;;;6.60;93.40;;;;;;2065805;28;20053;-90
2021/11/09 01:40:32;;;;;;;7.32;4.07;;;6.60;93.40;;;;;;2050396;28;20067;-90
2021/11/09 01:41:33;;;;;;;7.32;4.25;;;6.60;93.40;;;;;;2067183;28;20030;-90
2021/11/09 01:42:34;;;;;;;8.93;4.25;;;6.60;93.40;;;;;;2074437;28;20073;-89
2021/11/09 01:43:38;;;;;;;7.95;4.22;;;6.60;93.40;;;;;;2070210;28;20396;-90
2021/11/09 01:44:38;;;;;;;9.52;4.32;;;6.60;93.40;;;;;;2066947;28;20030;-89
2021/11/09 01:45:41;;;;;;;7.57;3.97;;;6.60;93.40;;;;;;2072325;28;20062;-91
2021/11/09 01:46:41;;;;;;;9.73;4.03;;;6.60;93.40;;;;;;2073794;28;20097;-90
2021/11/09 01:47:44;;;;;;;8.25;3.83;;;6.60;93.40;;;;;;2081567;28;20061;-90
2021/11/09 01:48:45;;;;;;;9.85;4.20;;;6.60;93.40;;;;;;2090749;28;20036;-90
2021/11/09 01:49:46;;;;;;;8.90;4.32;;;6.60;93.40;;;;;;2081645;28;20598;-91
2021/11/09 01:50:53;;;;;;;7.00;3.97;;;6.60;93.40;;;;;;2073829;28;20081;-90
2021/11/09 01:51:54;;;;;;;7.75;4.35;;;6.60;93.40;;;;;;2075030;28;20037;-90
2021/11/09 01:52:56;;;;;;;8.63;4.07;;;6.60;93.40;;;;;;2074007;28;20038;-90
2021/11/09 01:53:58;;;;;;;10.02;4.63;;;6.60;93.40;;;;;;2066266;28;20121;-90
2021/11/09 01:54:59;;;;;;;7.30;4.00;;;6.60;93.40;;;;;;2066097;28;20555;-90
2021/11/09 01:56:02;;;;;;;9.48;4.18;;;6.60;93.40;;;;;;2069384;28;20129;-90
2021/11/09 01:57:03;;;;;;;9.30;4.40;;;6.60;93.40;;;;;;2058206;28;20757;-90
2021/11/09 01:58:06;;;;;;;7.38;4.30;;;6.60;93.40;;;;;;2060213;28;20125;-91
2021/11/09 01:59:06;;;;;;;8.60;4.63;;;6.60;93.40;;;;;;2079354;28;20094;-91
2021/11/09 02:00:15;;;;;;;9.77;4.43;;;6.60;93.40;;;;;;2084717;28;20037;-90
2021/11/09 02:01:18;;;;;;;9.30;4.38;;;6.60;93.30;;;;;;2078928;28;20125;-91
2021/11/09 02:02:19;;;;;;;8.90;3.80;;;6.60;93.30;;;;;;2082217;28;20038;-89
2021/11/09 02:03:21;;;;;;;6.53;3.90;;;6.60;93.30;;;;;;2076385;28;20057;-86
2021/11/09 02:04:22;;;;;;;9.75;4.20;;;6.60;93.30;;;;;;2077003;28;20050;-85
2021/11/09 02:05:23;;;;;;;7.38;4.03;;;6.60;93.30;;;;;;2086857;28;20026;-88
2021/11/09 02:06:25;;;;;;;8.80;4.70;;;6.60;93.30;;;;;;2084444;28;20048;-88
2021/11/09 02:07:25;;;;;;;7.30;3.85;;;6.60;93.30;;;;;;2084752;28;20038;-89
2021/11/09 02:08:27;;;;;;;7.25;4.13;;;6.60;93.30;;;;;;2100051;28;20036;-90
2021/11/09 02:09:28;;;;;;;9.23;4.53;;;6.60;93.30;;;;;;2099177;28;20093;-90
2021/11/09 02:10:33;;;;;;;9.80;4.25;;;6.60;93.30;;;;;;2077178;28;20053;-91
2021/11/09 02:11:35;;;;;;;8.65;4.10;;;6.60;93.50;;;;;;2071563;28;20030;-91
2021/11/09 02:12:35;;;;;;;7.50;4.18;;;6.60;93.30;;;;;;2074216;28;20041;-91
2021/11/09 02:13:36;;;;;;;8.93;4.40;;;6.60;93.20;;;;;;2068363;28;20037;-90
2021/11/09 02:14:37;;;;;;;9.00;4.22;;;6.60;93.30;;;;;;2065156;28;20046;-90
2021/11/09 02:15:39;;;;;;;9.02;4.18;;;6.60;93.30;;;;;;2074019;28;20038;-90
2021/11/09 02:16:41;;;;;;;9.88;4.50;;;6.60;93.30;;;;;;2072664;28;20071;-89
2021/11/09 02:17:44;;;;;;;10.30;4.07;;;6.60;93.30;;;;;;2065415;28;20031;-89
2021/11/09 02:18:45;;;;;;;8.80;4.45;;;6.60;93.50;;;;;;2074681;28;20057;-89
2021/11/09 02:19:46;;;;;;;7.47;4.10;;;6.50;93.30;;;;;;2079785;28;20076;-90
2021/11/09 02:21:03;;;;;;;8.13;4.40;;;6.50;93.20;;;;;;2066172;28;20042;-90
2021/11/09 02:22:04;;;;;;;10.20;4.00;;;6.50;93.20;;;;;;2077168;28;20357;-89
2021/11/09 02:23:06;;;;;;;10.85;4.32;;;6.50;93.20;;;;;;2081880;28;20029;-90
2021/11/09 02:24:06;;;;;;;8.52;4.40;;;6.50;93.20;;;;;;2084389;28;20076;-89
2021/11/09 02:25:10;;;;;;;8.88;4.30;;;6.50;93.30;;;;;;2070784;28;20038;-89
2021/11/09 02:26:15;;;;;;;10.73;4.80;;;6.50;93.30;;;;;;2066283;28;20097;-89
2021/11/09 02:27:16;;;;;;;8.27;4.40;;;6.50;93.30;;;;;;2072416;28;20034;-89
2021/11/09 02:28:17;;;;;;;9.07;4.40;;;6.50;93.30;;;;;;2076475;28;20038;-90
2021/11/09 02:29:18;;;;;;;9.23;4.63;;;6.40;93.30;;;;;;2083079;28;20030;-90
2021/11/09 02:30:24;;;;;;;8.07;4.45;;;6.40;93.30;;;;;;2067098;28;20038;-90
2021/11/09 02:31:26;;;;;;;10.50;4.55;;;6.40;93.30;;;;;;2065891;28;20034;-90
2021/11/09 02:32:27;;;;;;;11.23;4.53;;;6.40;93.30;;;;;;2077974;28;20053;-89
2021/11/09 02:33:28;;;;;;;9.32;4.25;;;6.40;93.30;;;;;;2076230;28;20044;-90
2021/11/09 02:34:28;;;;;;;9.57;4.50;;;6.40;93.30;;;;;;2075869;28;20471;-90
2021/11/09 02:35:29;;;;;;;7.10;4.20;;;6.40;93.30;;;;;;2079693;28;20144;-90
2021/11/09 02:36:30;;;;;;;9.82;4.25;;;6.40;93.40;;;;;;2080771;28;20103;-89
2021/11/09 02:37:31;;;;;;;10.40;4.40;;;6.30;93.30;;;;;;2068323;28;20132;-89
2021/11/09 02:38:32;;;;;;;8.35;4.50;;;6.40;93.40;;;;;;2074173;28;20515;-90
2021/11/09 02:39:34;;;;;;;7.70;4.18;;;6.30;93.40;;;;;;2073852;28;20042;-90
2021/11/09 02:40:34;;;;;;;8.95;4.38;;;6.30;93.40;;;;;;2066391;28;20198;-90
2021/11/09 02:41:35;;;;;;;9.60;4.55;;;6.30;93.40;;;;;;2064454;28;20428;-90
2021/11/09 02:42:41;;;;;;;8.52;4.20;;;6.30;93.40;;;;;;2062411;28;20038;-88
2021/11/09 02:43:42;;;;;;;7.45;4.22;;;6.30;93.50;;;;;;2081881;28;20043;-89
2021/11/09 02:44:57;;;;;;;8.85;4.55;;;6.30;93.40;;;;;;2072488;28;20389;-89
2021/11/09 02:47:10;;;;;;;8.48;4.32;;;6.30;93.40;;;;;;2081733;28;20042;-89
2021/11/09 02:48:18;;;;;;;8.15;4.32;;;6.30;93.40;;;;;;2065961;28;20113;-89
2021/11/09 02:49:29;;;;;;;8.07;4.10;;;6.30;93.40;;;;;;2075742;28;20048;-90
2021/11/09 02:50:35;;;;;;;9.70;4.32;;;6.30;93.40;;;;;;2090717;28;20037;-89
2021/11/09 02:52:45;;;;;;;8.00;4.25;;;6.30;93.40;;;;;;2083589;28;20053;-89
2021/11/09 02:53:51;;;;;;;8.20;4.43;;;6.30;93.40;;;;;;2082978;28;20044;-90
2021/11/09 02:54:59;;;;;;;10.57;4.43;;;6.30;93.40;;;;;;2090876;28;20041;-89
2021/11/09 02:56:25;;;;;;;8.27;4.35;;;6.20;93.40;;;;;;2077649;28;20038;-90
2021/11/09 02:57:37;;;;;;;7.85;4.13;;;6.20;93.40;;;;;;2082043;28;20113;-89
2021/11/09 03:01:37;;;;;;;12.07;4.15;;;6.20;93.40;;;;;;2052930;28;20056;-90
2021/11/09 03:02:47;;;;;;;7.68;4.20;;;6.20;93.40;;;;;;2072459;28;20091;-90
2021/11/09 03:05:03;;;;;;;9.48;4.60;;;6.20;93.40;;;;;;2068312;28;20281;-91
2021/11/09 03:07:31;;;;;;;9.73;4.50;;;6.20;93.40;;;;;;2075052;28;20041;-92
2021/11/09 03:08:42;;;;;;;7.88;4.25;;;6.10;93.40;;;;;;2068744;28;20081;-90
2021/11/09 03:09:58;;;;;;;8.95;4.38;;;6.10;93.60;;;;;;2055636;28;20461;-91
2021/11/09 03:11:01;;;;;;;7.70;4.20;;;6.10;93.40;;;;;;2055271;28;20473;-91
2021/11/09 03:12:04;;;;;;;8.52;4.03;;;6.10;93.40;;;;;;2059037;28;20031;-90
2021/11/09 03:13:05;;;;;;;7.38;4.28;;;6.10;93.50;;;;;;2068130;28;20084;-90
2021/11/09 03:14:06;;;;;;;8.45;4.05;;;6.10;93.40;;;;;;2072757;28;20049;-91
2021/11/09 03:15:13;;;;;;;8.35;4.07;;;6.10;93.50;;;;;;2065631;28;20038;-91
2021/11/09 03:16:14;;;;;;;9.77;4.35;;;6.10;93.50;;;;;;2065496;28;20042;-91
2021/11/09 03:17:20;;;;;;;9.02;4.35;;;6.10;93.50;;;;;;2073534;28;20030;-91
2021/11/09 03:18:24;;;;;;;7.18;3.95;;;6.10;93.50;;;;;;2073596;28;20034;-91
2021/11/09 03:19:38;;;;;;;9.50;4.40;;;6.10;93.50;;;;;;2077024;28;20056;-91
2021/11/09 03:20:50;;;;;;;8.70;4.22;;;6.10;93.80;;;;;;2073793;28;20045;-91
2021/11/09 03:40:36;;;;;;;8.07;3.92;;;6.00;93.50;;;;;;2076143;28;20109;-90
2021/11/09 03:44:19;;;;;;;7.15;3.97;;;6.10;93.50;;;;;;2082381;28;20381;-89
2021/11/09 03:45:30;;;;;;;8.88;3.90;;;6.10;93.50;;;;;;2091606;28;20017;-84
2021/11/09 03:46:32;;;;;;;7.00;3.78;;;6.00;93.50;;;;;;2083456;28;20086;-84
2021/11/09 03:47:37;;;;;;;10.40;4.10;;;6.10;93.50;;;;;;2080780;28;20026;-87
2021/11/09 03:48:37;;;;;;;7.15;4.05;;;6.10;93.50;;;;;;2080404;28;20036;-85
2021/11/09 03:49:39;;;;;;;7.05;3.95;;;6.10;93.50;;;;;;2084512;28;20020;-89
2021/11/09 03:50:42;;;;;;;9.98;4.35;;;6.00;93.50;;;;;;2075495;28;20035;-89
2021/11/09 03:51:43;;;;;;;6.50;3.90;;;6.10;93.50;;;;;;2075558;28;20042;-80
2021/11/09 03:52:53;;;;;;;8.43;4.03;;;6.00;93.50;;;;;;2083589;28;20041;-90
2021/11/09 03:53:58;;;;;;;7.07;4.05;;;6.00;93.50;;;;;;2066602;28;20037;-89
2021/11/09 03:55:04;;;;;;;7.90;4.35;;;6.00;93.50;;;;;;2068043;28;20033;-90
2021/11/09 03:56:15;;;;;;;7.68;4.05;;;6.00;93.50;;;;;;2066051;28;20042;-90
2021/11/09 03:57:20;;;;;;;9.88;4.38;;;6.10;93.60;;;;;;2075728;28;20488;-90
2021/11/09 03:58:37;;;;;;;9.40;4.18;;;6.00;93.50;;;;;;2082198;28;20141;-90
2021/11/09 04:02:08;;;;;;;11.07;4.45;;;6.00;93.50;;;;;;2082272;28;20075;-90
2021/11/09 04:05:48;;;;;;;7.88;4.05;;;6.00;93.50;;;;;;2078293;28;20091;-91
2021/11/09 04:07:00;;;;;;;7.40;4.13;;;5.90;93.50;;;;;;2083416;28;20408;-92
2021/11/09 04:08:08;;;;;;;8.10;4.35;;;6.00;93.50;;;;;;2066007;28;20042;-90
2021/11/09 04:10:22;;;;;;;7.45;4.60;;;5.90;93.50;;;;;;2066860;28;20038;-90
2021/11/09 04:13:54;;;;;;;8.18;4.43;;;5.90;93.50;;;;;;2081715;28;20121;-90
2021/11/09 04:17:49;;;;;;;7.82;4.45;;;5.90;93.50;;;;;;2081394;28;20094;-91
2021/11/09 04:18:59;;;;;;;8.98;4.47;;;5.90;93.50;;;;;;2072904;28;20049;-91
2021/11/09 04:20:14;;;;;;;9.15;4.78;;;5.90;93.60;;;;;;2071379;28;20431;-90
2021/11/09 04:25:50;;;;;;;11.10;4.60;;;5.80;93.60;;;;;;2073650;28;20042;-91
2021/11/09 04:30:53;;;;;;;9.40;4.32;;;5.80;93.60;;;;;;2080577;28;20046;-91
2021/11/09 05:01:53;;;;;;;7.97;4.22;;;5.60;93.50;;;;;;2076348;28;20129;-90
2021/11/09 05:03:07;;;;;;;9.77;4.43;;;5.60;93.80;;;;;;2070668;28;20495;-91
2021/11/09 05:08:21;;;;;;;7.53;4.47;;;5.60;93.50;;;;;;2083468;28;20087;-91
2021/11/09 05:09:30;;;;;;;8.25;4.30;;;5.60;93.50;;;;;;2078137;28;20041;-90
2021/11/09 05:10:32;;;;;;;9.02;4.20;;;5.60;93.50;;;;;;2064127;28;20038;-91
2021/11/09 05:11:32;;;;;;;10.48;4.28;;;5.60;93.50;;;;;;2077367;28;20092;-90
2021/11/09 05:12:33;;;;;;;10.25;4.63;;;5.60;93.50;;;;;;2091049;28;20520;-90
2021/11/09 05:13:34;;;;;;;8.80;4.55;;;5.60;93.50;;;;;;2081286;28;20064;-91
2021/11/09 05:14:34;;;;;;;9.02;4.72;;;5.60;93.60;;;;;;2072746;28;20026;-91
2021/11/09 05:15:35;;;;;;;8.05;4.30;;;5.60;93.60;;;;;;2082477;28;20041;-90
2021/11/09 05:16:39;;;;;;;9.20;4.90;;;5.60;93.60;;;;;;2080311;28;20036;-91
2021/11/09 05:17:40;;;;;;;8.27;4.45;;;5.60;93.60;;;;;;2074439;28;20066;-90
2021/11/09 05:18:41;;;;;;;9.20;4.82;;;5.60;93.60;;;;;;2058341;28;20457;-90
2021/11/09 05:19:41;;;;;;;10.05;4.63;;;5.60;93.60;;;;;;2058049;28;20427;-91
2021/11/09 05:20:42;;;;;;;8.85;4.85;;;5.60;93.60;;;;;;2049059;28;20042;-91
2021/11/09 05:21:43;;;;;;;10.25;4.90;;;5.60;93.60;;;;;;2050469;28;20076;-90
2021/11/09 05:22:45;;;;;;;9.45;5.47;;;5.60;93.60;;;;;;2058745;28;20031;-91
2021/11/09 05:23:46;;;;;;;10.00;5.03;;;5.60;93.60;;;;;;2077330;28;20030;-91
2021/11/09 05:24:46;;;;;;;10.02;5.10;;;5.60;93.60;;;;;;2071958;28;20042;-91
2021/11/09 05:25:50;;;;;;;8.15;4.95;;;5.60;93.60;;;;;;2079424;28;20041;-90
2021/11/09 05:26:51;;;;;;;9.93;5.53;;;5.60;93.60;;;;;;2095525;28;20049;-91
2021/11/09 05:27:52;;;;;;;11.60;5.32;;;5.60;93.60;;;;;;2094159;28;20107;-90
2021/11/09 05:28:53;;;;;;;8.50;4.95;;;5.60;93.60;;;;;;2098956;28;20024;-89
2021/11/09 05:29:54;;;;;;;10.73;4.72;;;5.60;93.60;;;;;;2093258;28;20052;-91
2021/11/09 05:30:55;;;;;;;10.95;4.90;;;5.60;93.60;;;;;;2084562;28;20065;-81
2021/11/09 05:31:59;;;;;;;10.45;5.40;;;5.60;93.60;;;;;;2085140;28;20025;-87
2021/11/09 05:33:00;;;;;;;10.40;4.93;;;5.60;93.70;;;;;;2093756;28;20028;-88
2021/11/09 05:34:02;;;;;;;11.52;5.13;;;5.60;93.70;;;;;;2078346;28;20093;-91
2021/11/09 05:35:04;;;;;;;9.85;5.35;;;5.60;93.70;;;;;;2074997;28;20097;-90
2021/11/09 05:36:06;;;;;;;9.88;4.90;;;5.60;93.70;;;;;;2074732;28;20058;-91
2021/11/09 05:37:09;;;;;;;10.45;4.88;;;5.60;93.60;;;;;;2063247;28;20481;-91
2021/11/09 05:38:12;;;;;;;8.02;4.80;;;5.60;93.60;;;;;;2065987;28;20113;-90
2021/11/09 05:39:18;;;;;;;9.20;5.05;;;5.60;93.60;;;;;;2067233;28;20042;-90
2021/11/09 05:40:25;;;;;;;12.27;5.70;;;5.60;93.60;;;;;;2074368;28;20504;-90
2021/11/09 05:41:31;;;;;;;8.45;4.78;;;5.60;93.60;;;;;;2070023;28;20456;-90
2021/11/09 05:42:32;;;;;;;8.27;4.57;;;5.60;93.60;;;;;;2065596;28;20147;-90
2021/11/09 05:43:33;;;;;;;9.70;5.05;;;5.60;93.60;;;;;;2051387;28;20032;-90
2021/11/09 05:44:34;;;;;;;8.40;4.80;;;5.60;93.60;;;;;;2067067;28;20046;-90
2021/11/09 05:45:34;;;;;;;9.93;5.15;;;5.50;93.60;;;;;;2091425;28;20120;-89
2021/11/09 05:46:36;;;;;;;8.20;4.68;;;5.60;93.70;;;;;;2091351;28;20041;-90
2021/11/09 05:47:37;;;;;;;9.30;5.43;;;5.60;93.70;;;;;;2076168;28;20022;-89
2021/11/09 05:48:39;;;;;;;9.43;5.00;;;5.50;93.60;;;;;;2076853;28;20042;-90
2021/11/09 05:49:40;;;;;;;8.82;5.03;;;5.60;93.70;;;;;;2092577;28;20025;-90
2021/11/09 05:50:42;;;;;;;10.32;5.03;;;5.50;93.70;;;;;;2088759;28;20045;-91
2021/11/09 05:51:43;;;;;;;14.00;5.57;;;5.50;93.60;;;;;;2082413;28;20037;-90
2021/11/09 05:52:43;;;;;;;10.88;5.53;;;5.50;93.60;;;;;;2068473;28;20468;-91
2021/11/09 05:53:44;;;;;;;8.70;5.07;;;5.50;93.60;;;;;;2068417;28;20393;-89
2021/11/09 05:54:45;;;;;;;9.20;5.20;;;5.60;93.70;;;;;;2074561;28;20044;-91
2021/11/09 05:55:46;;;;;;;10.20;4.88;;;5.50;93.60;;;;;;2067352;28;20090;-90
2021/11/09 05:56:46;;;;;;;9.73;4.88;;;5.60;93.60;;;;;;2076592;28;20771;-90
2021/11/09 05:57:47;;;;;;;10.50;5.40;;;5.60;93.90;;;;;;2083664;28;20123;-94
2021/11/09 05:58:47;;;;;;;9.77;5.40;;;5.60;93.90;;;;;;2090645;28;20080;-91
2021/11/09 05:59:48;;;;;;;8.90;4.90;;;5.60;93.60;;;;;;2073899;28;20026;-90
2021/11/09 06:00:49;;;;;;;10.80;5.57;;;5.60;93.70;;;;;;2064465;28;20481;-91
2021/11/09 06:01:49;;;;;;;10.43;5.05;;;5.60;93.60;;;;;;2075837;28;20030;-90
2021/11/09 06:02:50;;;;;;;10.70;5.53;;;5.50;93.60;;;;;;2086319;28;20128;-89
2021/11/09 06:03:51;;;;;;;9.25;5.28;;;5.50;93.60;;;;;;2084542;28;20030;-90
2021/11/09 06:04:54;;;;;;;9.90;5.03;;;5.60;93.60;;;;;;2082910;28;20416;-90
2021/11/09 06:05:55;;;;;;;10.38;5.32;;;5.50;93.60;;;;;;2075004;28;20539;-89
2021/11/09 06:06:56;;;;;;;10.50;5.65;;;5.50;93.60;;;;;;2072362;28;20046;-91
2021/11/09 06:07:57;;;;;;;8.73;5.20;;;5.50;93.60;;;;;;2072089;28;20038;-90
2021/11/09 06:08:58;;;;;;;11.02;5.15;;;5.50;93.60;;;;;;2072775;28;20046;-90
2021/11/09 06:09:58;;;;;;;8.25;4.93;;;5.50;93.60;;;;;;2052874;28;20089;-90
2021/11/09 06:10:59;;;;;;;9.57;5.45;;;5.50;93.60;;;;;;2047407;29;20036;-90
2021/11/09 06:12:00;;;;;;;9.02;5.32;;;5.50;93.60;;;;;;2051970;28;20513;-90
2021/11/09 06:13:00;;;;;;;9.25;5.20;;;5.50;93.60;;;;;;2062389;28;20070;-90
2021/11/09 06:14:01;;;;;;;8.65;5.28;;;5.50;93.70;;;;;;2057767;28;20081;-90
2021/11/09 06:15:03;;;;;;;11.00;5.50;;;5.50;93.60;;;;;;2049924;28;20454;-90
2021/11/09 06:16:04;;;;;;;8.32;4.55;;;5.50;93.70;;;;;;2058824;28;20093;-90
2021/11/09 06:17:05;;;;;;;12.48;5.20;;;5.50;93.70;;;;;;2057131;28;20039;-91
2021/11/09 06:18:06;;;;;;;9.27;5.25;;;5.50;93.60;;;;;;2065479;28;20523;-89
2021/11/09 06:19:07;;;;;;;9.02;5.22;;;5.50;93.60;;;;;;2057573;28;20042;-91
2021/11/09 06:20:08;;;;;;;10.68;5.65;;;5.50;93.60;;;;;;2056780;28;20065;-90
2021/11/09 06:21:09;;;;;;;10.45;5.10;;;5.40;93.60;;;;;;2056632;28;20082;-90
2021/11/09 06:22:12;;;;;;;11.07;5.18;;;5.40;93.60;;;;;;2054844;28;20055;-89
2021/11/09 06:23:13;;;;;;;10.55;5.68;;;5.40;93.60;;;;;;2056972;28;20034;-91
2021/11/09 06:24:13;;;;;;;8.45;5.18;;;5.50;93.60;;;;;;2073851;28;20072;-90
2021/11/09 06:25:14;;;;;;;10.63;5.72;;;5.40;93.60;;;;;;2074602;28;20082;-87
2021/11/09 06:26:15;;;;;;;10.13;5.28;;;5.40;93.60;;;;;;2081584;28;20127;-89
2021/11/09 06:27:18;;;;;;;10.90;5.03;;;5.40;93.60;;;;;;2082904;28;20525;-89
2021/11/09 06:28:20;;;;;;;10.95;5.32;;;5.40;93.60;;;;;;2085750;28;20506;-91
2021/11/09 06:29:21;;;;;;;10.50;5.10;;;5.40;93.60;;;;;;2081605;28;20128;-89
2021/11/09 06:30:22;;;;;;;9.77;4.95;;;5.40;93.60;;;;;;2070106;28;20096;-90
2021/11/09 06:31:24;;;;;;;8.68;5.10;;;5.40;93.60;;;;;;2076149;28;20038;-91
2021/11/09 06:32:24;;;;;;;10.88;5.20;;;5.40;93.60;;;;;;2078081;28;20026;-89
2021/11/09 06:33:25;;;;;;;10.20;5.28;;;5.40;93.90;;;;;;2063233;28;20105;-90
2021/11/09 06:34:26;;;;;;;10.15;5.90;;;5.40;93.60;;;;;;2059053;28;20039;-91
2021/11/09 06:35:27;;;;;;;9.75;4.93;;;5.40;93.60;;;;;;2060305;28;20061;-90
2021/11/09 06:36:28;;;;;;;9.77;5.13;;;5.40;93.60;;;;;;2055387;28;20063;-90
2021/11/09 06:37:31;;;;;;;9.65;5.20;;;5.40;93.60;;;;;;2059429;28;20082;-92
2021/11/09 06:38:32;;;;;;;9.57;5.32;;;5.40;93.60;;;;;;2060201;28;20035;-86
2021/11/09 06:39:33;;;;;;;10.45;5.22;;;5.40;93.60;;;;;;2063285;28;20031;-85
2021/11/09 06:40:34;;;;;;;10.63;6.22;;;5.40;93.60;;;;;;2064948;28;20049;-86
2021/11/09 06:41:35;;;;;;;10.68;5.63;;;5.40;93.60;;;;;;2065694;28;20070;-89
2021/11/09 06:42:36;;;;;;;13.32;5.97;;;5.40;93.60;;;;;;2065558;28;20044;-89
2021/11/09 06:43:37;;;;;;;9.75;5.43;;;5.40;93.60;;;;;;2074436;28;20030;-89
2021/11/09 06:44:37;;;;;;;11.38;5.72;;;5.40;93.70;;;;;;2090842;28;20072;-89
2021/11/09 06:45:38;;;;;;;10.13;5.80;;;5.40;93.60;;;;;;2072174;28;20061;-89
2021/11/09 06:46:39;;;;;;;8.50;5.60;;;5.40;93.60;;;;;;2067539;28;20599;-89
2021/11/09 06:47:41;;;;;;;11.98;5.85;;;5.40;93.60;;;;;;2077063;28;20026;-88
2021/11/09 06:48:44;;;;;;;10.23;5.40;;;5.40;93.60;;;;;;2077984;28;20026;-87
2021/11/09 06:49:44;;;;;;;9.20;5.57;;;5.40;93.60;;;;;;2062946;28;20540;-89
2021/11/09 06:50:45;;;;;;;11.60;5.25;;;5.40;93.60;;;;;;2053189;28;20059;-89
2021/11/09 06:51:46;;;;;;;13.02;5.72;;;5.40;93.70;;;;;;2051095;28;20032;-88
2021/11/09 06:52:47;;;;;;;9.02;5.38;;;5.40;93.60;;;;;;2058026;28;20062;-88
2021/11/09 06:53:47;;;;;;;9.75;5.70;;;5.40;93.60;;;;;;2058163;28;20514;-89
2021/11/09 06:54:49;;;;;;;9.98;5.38;;;5.40;93.60;;;;;;2065779;28;20074;-89